createdAt,value
2022-09-25T00:04:35.413Z,9.83
2022-09-25T00:09:33.616Z,12.07
2022-09-25T00:14:31.879Z,12.30
2022-09-25T00:19:47.389Z,12.60
2022-09-25T00:24:47.045Z,12.40
2022-09-25T00:29:45.497Z,11.50
2022-09-25T00:34:43.642Z,11.50
2022-09-25T00:39:41.926Z,12.67
2022-09-25T00:44:56.647Z,12.47
2022-09-25T00:49:56.657Z,12.80
2022-09-25T00:54:59.821Z,13.40
2022-09-25T01:00:06.745Z,12.70
2022-09-25T01:05:09.070Z,14.20
2022-09-25T01:10:09.699Z,14.90
2022-09-25T01:15:11.651Z,13.80
2022-09-25T01:20:19.129Z,13.67
2022-09-25T01:25:30.012Z,15.00
2022-09-25T01:30:34.589Z,15.03
2022-09-25T01:35:48.367Z,14.97
2022-09-25T01:40:55.762Z,15.47
2022-09-25T01:46:01.345Z,14.53
2022-09-25T01:51:03.666Z,15.00
2022-09-25T01:56:07.114Z,16.53
2022-09-25T02:01:11.523Z,16.80
2022-09-25T02:06:12.334Z,18.10
2022-09-25T02:11:10.812Z,17.30
2022-09-25T02:16:13.338Z,17.90
2022-09-25T02:21:18.175Z,17.03
2022-09-25T02:26:23.758Z,17.50
2022-09-25T02:31:28.638Z,18.20
2022-09-25T02:36:26.982Z,20.03
2022-09-25T02:41:40.310Z,18.77
2022-09-25T02:46:45.331Z,19.53
2022-09-25T02:51:53.382Z,16.20
2022-09-25T02:57:01.402Z,17.67
2022-09-25T03:02:04.302Z,18.50
2022-09-25T03:07:03.393Z,20.57
2022-09-25T03:12:03.179Z,19.40
2022-09-25T03:17:06.146Z,20.60
2022-09-25T03:22:04.372Z,22.10
2022-09-25T03:27:02.503Z,20.90
2022-09-25T03:32:00.679Z,20.43
2022-09-25T03:37:00.178Z,20.13
2022-09-25T03:41:58.845Z,20.00
2022-09-25T03:46:57.075Z,19.10
2022-09-25T03:51:55.204Z,16.37
2022-09-25T03:56:54.754Z,18.10
2022-09-25T04:01:53.019Z,19.70
2022-09-25T04:06:51.242Z,18.30
2022-09-25T04:11:49.387Z,19.57
2022-09-25T04:16:49.043Z,18.90
2022-09-25T04:21:47.600Z,16.87
2022-09-25T04:26:46.158Z,15.87
2022-09-25T04:31:44.336Z,14.60
2022-09-25T04:36:46.720Z,15.60
2022-09-25T04:41:44.878Z,15.17
2022-09-25T04:46:43.144Z,16.63
2022-09-25T04:51:41.469Z,16.03
2022-09-25T04:56:40.962Z,15.70
2022-09-25T05:01:39.791Z,14.93
2022-09-25T05:06:38.081Z,16.50
2022-09-25T05:11:36.213Z,16.07
2022-09-25T05:16:35.778Z,12.77
2022-09-25T05:21:33.959Z,13.57
2022-09-25T05:26:34.450Z,14.80
2022-09-25T05:31:33.082Z,13.80
2022-09-25T05:36:34.257Z,13.83
2022-09-25T05:41:34.810Z,16.50
2022-09-25T05:46:33.072Z,14.73
2022-09-25T05:51:33.132Z,15.37
2022-09-25T05:56:31.305Z,14.00
2022-09-25T06:01:29.557Z,15.57
2022-09-25T06:06:27.824Z,16.27
2022-09-25T06:11:27.652Z,13.27
2022-09-25T06:16:26.081Z,16.47
2022-09-25T06:21:24.369Z,16.93
2022-09-25T06:26:23.232Z,16.03
2022-09-25T06:31:22.888Z,14.57
2022-09-25T06:36:21.121Z,15.00
2022-09-25T06:41:19.298Z,12.20
2022-09-25T06:46:18.321Z,13.13
2022-09-25T06:51:18.656Z,13.90
2022-09-25T06:56:16.886Z,14.50
2022-09-25T07:01:15.182Z,11.90
2022-09-25T07:06:16.464Z,11.40
2022-09-25T07:11:18.223Z,12.57
2022-09-25T07:16:18.177Z,11.67
2022-09-25T07:21:18.068Z,12.77
2022-09-25T07:26:22.366Z,12.50
2022-09-25T07:31:23.461Z,10.50
2022-09-25T07:36:22.384Z,7.07
2022-09-25T07:41:23.759Z,10.07
2022-09-25T07:46:22.054Z,10.30
2022-09-25T07:51:21.939Z,10.70
2022-09-25T07:56:21.841Z,9.60
2022-09-25T08:01:20.127Z,9.23
2022-09-25T08:06:18.321Z,6.73
2022-09-25T08:11:18.230Z,8.33
2022-09-25T08:16:22.664Z,9.93
2022-09-25T08:21:21.638Z,7.13
2022-09-25T08:26:21.908Z,8.23
2022-09-25T08:31:21.661Z,7.40
2022-09-25T08:36:20.365Z,7.50
2022-09-25T08:41:23.469Z,6.60
2022-09-25T08:46:44.674Z,8.33
2022-09-25T08:51:46.493Z,5.50
2022-09-25T08:56:44.756Z,7.57
2022-09-25T09:01:49.914Z,7.33
2022-09-25T09:07:08.052Z,6.40
2022-09-25T09:12:13.451Z,7.97
2022-09-25T09:17:19.206Z,6.67
2022-09-25T09:22:23.073Z,7.67
2022-09-25T09:27:33.041Z,6.10
2022-09-25T09:32:45.080Z,6.97
2022-09-25T09:37:59.751Z,5.20
2022-09-25T09:43:08.855Z,3.50
2022-09-25T09:48:19.180Z,5.73
2022-09-25T09:53:28.390Z,4.07
2022-09-25T09:58:30.995Z,2.80
2022-09-25T10:03:37.412Z,5.67
2022-09-25T10:08:36.312Z,6.43
2022-09-25T10:13:38.255Z,6.70
2022-09-25T10:18:43.009Z,7.47
2022-09-25T10:23:42.820Z,7.67
2022-09-25T10:28:44.001Z,7.00
2022-09-25T10:33:43.730Z,7.60
2022-09-25T10:38:49.970Z,6.60
2022-09-25T10:43:54.912Z,5.27
2022-09-25T10:49:36.076Z,7.73
2022-09-25T10:54:39.009Z,8.53
2022-09-25T10:59:41.231Z,9.20
2022-09-25T11:04:43.880Z,8.83
2022-09-25T11:09:46.108Z,8.63
2022-09-25T11:14:55.279Z,8.30
2022-09-25T11:20:16.214Z,7.70
2022-09-25T11:25:19.802Z,5.73
2022-09-25T11:30:20.064Z,6.37
2022-09-25T11:35:34.701Z,4.83
2022-09-25T11:40:59.010Z,3.83
2022-09-25T11:46:03.308Z,2.30
2022-09-25T11:51:12.945Z,2.20
2022-09-25T11:56:25.458Z,1.80
2022-09-25T12:01:33.583Z,3.53
2022-09-25T12:07:00.266Z,3.60
2022-09-25T12:12:07.410Z,4.20
2022-09-25T12:17:11.170Z,3.77
2022-09-25T12:22:19.915Z,5.10
2022-09-25T12:27:31.572Z,4.97
2022-09-25T12:32:54.671Z,4.43
2022-09-25T12:37:58.500Z,3.10
2022-09-25T12:43:02.946Z,4.47
2022-09-25T12:48:11.957Z,5.33
2022-09-25T12:53:24.158Z,3.60
2022-09-25T12:58:32.114Z,5.10
2022-09-25T13:03:40.072Z,5.20
2022-09-25T13:08:44.878Z,4.27
2022-09-25T13:13:46.413Z,2.77
2022-09-25T13:18:49.459Z,3.40
2022-09-25T13:23:51.758Z,2.70
2022-09-25T13:28:53.612Z,2.80
2022-09-25T13:33:55.263Z,2.77
2022-09-25T13:39:15.606Z,2.63
2022-09-25T13:45:07.910Z,2.87
2022-09-25T13:50:19.693Z,1.80
2022-09-25T13:55:20.187Z,2.20
2022-09-25T14:00:18.784Z,2.37
2022-09-25T14:05:21.601Z,1.90
2022-09-25T14:10:22.230Z,1.40
2022-09-25T14:15:26.851Z,1.83
2022-09-25T14:20:44.078Z,2.17
2022-09-25T14:25:47.490Z,1.83
2022-09-25T14:30:54.889Z,1.80
2022-09-25T14:36:02.660Z,2.90
2022-09-25T14:41:18.737Z,2.17
2022-09-25T14:46:20.040Z,2.10
2022-09-25T14:51:25.611Z,2.30
2022-09-25T14:56:26.950Z,1.70
2022-09-25T15:01:29.423Z,2.03
2022-09-25T15:06:29.425Z,3.00
2022-09-25T15:11:39.086Z,2.13
2022-09-25T15:16:56.594Z,1.70
2022-09-25T15:21:55.670Z,1.53
2022-09-25T15:27:03.437Z,1.97
2022-09-25T15:32:02.156Z,1.50
2022-09-25T15:37:18.086Z,1.70
2022-09-25T15:42:17.639Z,1.83
2022-09-25T15:47:52.182Z,1.70
2022-09-25T15:52:52.634Z,1.57
2022-09-25T15:57:54.217Z,2.17
2022-09-25T16:03:15.534Z,2.33
2022-09-25T16:08:29.264Z,2.40
2022-09-25T16:13:28.865Z,3.50
2022-09-25T16:18:40.586Z,1.60
2022-09-25T16:23:41.009Z,1.40
2022-09-25T16:28:40.898Z,1.90
2022-09-25T16:33:42.151Z,1.90
2022-09-25T16:38:41.349Z,2.10
2022-09-25T16:43:40.927Z,1.77
2022-09-25T16:48:40.678Z,3.13
2022-09-25T16:53:40.052Z,4.63
2022-09-25T16:58:38.181Z,3.10
2022-09-25T17:03:49.879Z,2.10
2022-09-25T17:08:49.026Z,2.80
2022-09-25T17:13:48.324Z,2.57
2022-09-25T17:18:47.856Z,2.90
2022-09-25T17:23:47.019Z,2.97
2022-09-25T17:28:45.193Z,3.33
2022-09-25T17:33:43.340Z,2.57
2022-09-25T17:38:42.920Z,4.30
2022-09-25T17:43:43.028Z,2.40
2022-09-25T17:48:41.292Z,3.03
2022-09-25T17:53:39.532Z,2.50
2022-09-25T17:58:39.657Z,2.77
2022-09-25T18:03:37.923Z,2.43
2022-09-25T18:08:36.429Z,3.10
2022-09-25T18:13:37.900Z,2.70
2022-09-25T18:18:54.860Z,2.70
2022-09-25T18:23:53.011Z,3.17
2022-09-25T18:28:51.145Z,3.23
2022-09-25T18:33:54.840Z,3.43
2022-09-25T18:38:53.156Z,3.70
2022-09-25T18:43:51.338Z,2.50
2022-09-25T18:48:53.492Z,2.80
2022-09-25T18:53:52.627Z,4.30
2022-09-25T18:58:51.766Z,3.60
2022-09-25T19:03:52.922Z,3.57
2022-09-25T19:08:53.731Z,4.13
2022-09-25T19:13:52.970Z,4.00
2022-09-25T19:18:52.605Z,3.27
2022-09-25T19:23:51.736Z,3.80
2022-09-25T19:28:50.226Z,3.37
2022-09-25T19:33:48.842Z,3.33
2022-09-25T19:38:48.749Z,3.60
2022-09-25T19:43:47.203Z,3.47
2022-09-25T19:48:46.128Z,2.93
2022-09-25T19:53:44.941Z,2.53
2022-09-25T19:58:44.753Z,2.40
2022-09-25T20:03:43.361Z,2.67
2022-09-25T20:08:41.547Z,2.40
2022-09-25T20:13:39.823Z,4.07
2022-09-25T20:18:39.424Z,3.33
2022-09-25T20:23:37.750Z,2.50
2022-09-25T20:28:36.611Z,2.33
2022-09-25T20:33:36.380Z,1.90
2022-09-25T20:38:36.861Z,2.30
2022-09-25T20:43:35.419Z,1.67
2022-09-25T20:48:36.220Z,2.17
2022-09-25T20:53:36.325Z,2.07
2022-09-25T20:58:34.745Z,1.60
2022-09-25T21:03:34.157Z,1.90
2022-09-25T21:08:33.059Z,1.90
2022-09-25T21:13:33.896Z,1.90
2022-09-25T21:18:35.098Z,2.73
2022-09-25T21:23:34.082Z,3.43
2022-09-25T21:28:34.278Z,2.80
2022-09-25T21:33:32.497Z,2.13
2022-09-25T21:38:30.787Z,1.57
2022-09-25T21:43:31.228Z,1.50
2022-09-25T21:48:31.299Z,1.70
2022-09-25T21:53:30.002Z,2.47
2022-09-25T21:58:28.508Z,3.20
2022-09-25T22:03:27.049Z,2.27
2022-09-25T22:08:26.572Z,1.90
2022-09-25T22:13:25.414Z,1.87
2022-09-25T22:18:23.795Z,1.63
2022-09-25T22:23:22.113Z,1.70
2022-09-25T22:28:22.545Z,1.73
2022-09-25T22:33:20.803Z,1.67
2022-09-25T22:38:18.982Z,1.50
2022-09-25T22:43:17.145Z,2.03
2022-09-25T22:48:16.782Z,1.77
2022-09-25T22:53:14.920Z,2.17
2022-09-25T22:58:13.093Z,1.53
2022-09-25T23:03:11.457Z,1.90
2022-09-25T23:08:11.070Z,1.67
2022-09-25T23:13:09.439Z,1.90
2022-09-25T23:18:07.935Z,1.43
2022-09-25T23:23:06.201Z,1.97
2022-09-25T23:28:05.745Z,2.03
2022-09-25T23:33:03.917Z,1.63
2022-09-25T23:38:02.560Z,1.67
2022-09-25T23:43:01.884Z,1.57
2022-09-25T23:48:01.505Z,1.40
2022-09-25T23:53:00.063Z,1.47
2022-09-25T23:57:58.419Z,1.97
